sensor_id;sensor_type;location;lat;lon;timestamp;P1;durP1;ratioP1;P2;durP2;ratioP2
18140;SDS011;9196;49.194;12.526;2022-08-03T00:01:39;3.23;;;2.97;;
18140;SDS011;9196;49.194;12.526;2022-08-03T00:04:07;3.70;;;3.40;;
18140;SDS011;9196;49.194;12.526;2022-08-03T00:06:35;6.80;;;3.20;;
18140;SDS011;9196;49.194;12.526;2022-08-03T00:09:03;4.03;;;3.73;;
18140;SDS011;9196;49.194;12.526;2022-08-03T00:11:30;3.23;;;2.93;;
18140;SDS011;9196;49.194;12.526;2022-08-03T00:13:57;3.57;;;3.27;;
18140;SDS011;9196;49.194;12.526;2022-08-03T00:16:25;3.90;;;3.60;;
18140;SDS011;9196;49.194;12.526;2022-08-03T00:18:52;3.40;;;3.10;;
18140;SDS011;9196;49.194;12.526;2022-08-03T00:21:18;3.80;;;3.30;;
18140;SDS011;9196;49.194;12.526;2022-08-03T00:23:45;9.67;;;2.80;;
18140;SDS011;9196;49.194;12.526;2022-08-03T00:26:12;3.10;;;2.90;;
18140;SDS011;9196;49.194;12.526;2022-08-03T00:28:39;4.30;;;3.13;;
18140;SDS011;9196;49.194;12.526;2022-08-03T00:31:06;3.40;;;3.20;;
18140;SDS011;9196;49.194;12.526;2022-08-03T00:33:34;3.60;;;3.30;;
18140;SDS011;9196;49.194;12.526;2022-08-03T00:36:01;3.40;;;3.20;;
18140;SDS011;9196;49.194;12.526;2022-08-03T00:38:28;3.20;;;2.90;;
18140;SDS011;9196;49.194;12.526;2022-08-03T00:40:54;3.93;;;3.53;;
18140;SDS011;9196;49.194;12.526;2022-08-03T00:43:23;2.90;;;2.70;;
18140;SDS011;9196;49.194;12.526;2022-08-03T00:45:51;3.43;;;3.10;;
18140;SDS011;9196;49.194;12.526;2022-08-03T00:48:19;3.73;;;3.43;;
18140;SDS011;9196;49.194;12.526;2022-08-03T00:50:47;10.23;;;3.30;;
18140;SDS011;9196;49.194;12.526;2022-08-03T00:53:14;3.83;;;3.57;;
18140;SDS011;9196;49.194;12.526;2022-08-03T00:55:41;30.50;;;3.83;;
18140;SDS011;9196;49.194;12.526;2022-08-03T00:58:08;3.20;;;3.00;;
18140;SDS011;9196;49.194;12.526;2022-08-03T01:00:36;3.47;;;3.27;;
18140;SDS011;9196;49.194;12.526;2022-08-03T01:03:04;3.70;;;3.37;;
18140;SDS011;9196;49.194;12.526;2022-08-03T01:05:32;2.50;;;2.40;;
18140;SDS011;9196;49.194;12.526;2022-08-03T01:08:07;3.17;;;3.07;;
18140;SDS011;9196;49.194;12.526;2022-08-03T01:10:44;3.10;;;2.93;;
18140;SDS011;9196;49.194;12.526;2022-08-03T01:13:20;4.37;;;3.83;;
18140;SDS011;9196;49.194;12.526;2022-08-03T01:15:53;3.60;;;3.40;;
18140;SDS011;9196;49.194;12.526;2022-08-03T01:18:25;3.83;;;3.50;;
18140;SDS011;9196;49.194;12.526;2022-08-03T01:20:57;3.37;;;3.17;;
18140;SDS011;9196;49.194;12.526;2022-08-03T01:23:36;4.10;;;3.70;;
18140;SDS011;9196;49.194;12.526;2022-08-03T01:29:28;6.33;;;3.60;;
18140;SDS011;9196;49.194;12.526;2022-08-03T01:32:24;2.80;;;2.70;;
18140;SDS011;9196;49.194;12.526;2022-08-03T01:34:57;3.40;;;3.13;;
18140;SDS011;9196;49.194;12.526;2022-08-03T01:37:38;3.47;;;3.27;;
18140;SDS011;9196;49.194;12.526;2022-08-03T01:40:09;3.60;;;3.40;;
18140;SDS011;9196;49.194;12.526;2022-08-03T01:42:38;4.97;;;3.40;;
18140;SDS011;9196;49.194;12.526;2022-08-03T01:45:09;4.67;;;3.63;;
18140;SDS011;9196;49.194;12.526;2022-08-03T01:47:38;3.30;;;3.10;;
18140;SDS011;9196;49.194;12.526;2022-08-03T01:50:06;3.07;;;2.87;;
18140;SDS011;9196;49.194;12.526;2022-08-03T01:52:34;3.43;;;3.23;;
18140;SDS011;9196;49.194;12.526;2022-08-03T01:55:05;3.50;;;3.30;;
18140;SDS011;9196;49.194;12.526;2022-08-03T01:57:34;5.70;;;2.97;;
18140;SDS011;9196;49.194;12.526;2022-08-03T02:00:03;3.60;;;3.10;;
18140;SDS011;9196;49.194;12.526;2022-08-03T02:02:34;2.83;;;2.73;;
18140;SDS011;9196;49.194;12.526;2022-08-03T02:05:03;3.17;;;2.97;;
18140;SDS011;9196;49.194;12.526;2022-08-03T02:07:32;3.40;;;3.20;;
18140;SDS011;9196;49.194;12.526;2022-08-03T02:10:00;3.43;;;3.13;;
18140;SDS011;9196;49.194;12.526;2022-08-03T02:12:31;6.30;;;2.70;;
18140;SDS011;9196;49.194;12.526;2022-08-03T02:15:00;3.00;;;2.90;;
18140;SDS011;9196;49.194;12.526;2022-08-03T02:17:28;6.33;;;3.10;;
18140;SDS011;9196;49.194;12.526;2022-08-03T02:19:57;3.43;;;3.23;;
18140;SDS011;9196;49.194;12.526;2022-08-03T02:22:26;3.37;;;3.07;;
18140;SDS011;9196;49.194;12.526;2022-08-03T02:24:54;4.10;;;2.90;;
18140;SDS011;9196;49.194;12.526;2022-08-03T02:27:22;3.43;;;3.23;;
18140;SDS011;9196;49.194;12.526;2022-08-03T02:29:52;3.43;;;3.00;;
18140;SDS011;9196;49.194;12.526;2022-08-03T02:32:24;3.67;;;2.73;;
18140;SDS011;9196;49.194;12.526;2022-08-03T02:34:58;3.30;;;3.00;;
18140;SDS011;9196;49.194;12.526;2022-08-03T02:37:27;3.43;;;3.07;;
18140;SDS011;9196;49.194;12.526;2022-08-03T02:40:00;3.37;;;3.07;;
18140;SDS011;9196;49.194;12.526;2022-08-03T02:42:28;2.90;;;2.70;;
18140;SDS011;9196;49.194;12.526;2022-08-03T02:44:57;3.30;;;3.10;;
18140;SDS011;9196;49.194;12.526;2022-08-03T02:47:27;3.40;;;3.20;;
18140;SDS011;9196;49.194;12.526;2022-08-03T02:49:57;3.10;;;3.00;;
18140;SDS011;9196;49.194;12.526;2022-08-03T02:52:27;3.50;;;3.30;;
18140;SDS011;9196;49.194;12.526;2022-08-03T02:54:56;5.00;;;3.03;;
18140;SDS011;9196;49.194;12.526;2022-08-03T02:57:26;3.73;;;3.53;;
18140;SDS011;9196;49.194;12.526;2022-08-03T02:59:54;3.10;;;2.80;;
18140;SDS011;9196;49.194;12.526;2022-08-03T03:02:23;3.30;;;3.10;;
18140;SDS011;9196;49.194;12.526;2022-08-03T03:04:51;2.83;;;2.73;;
18140;SDS011;9196;49.194;12.526;2022-08-03T03:07:21;3.57;;;3.20;;
18140;SDS011;9196;49.194;12.526;2022-08-03T03:09:49;3.40;;;3.07;;
18140;SDS011;9196;49.194;12.526;2022-08-03T03:12:16;3.87;;;3.60;;
18140;SDS011;9196;49.194;12.526;2022-08-03T03:14:44;4.13;;;3.80;;
18140;SDS011;9196;49.194;12.526;2022-08-03T03:17:11;5.33;;;3.10;;
18140;SDS011;9196;49.194;12.526;2022-08-03T03:19:42;2.83;;;2.73;;
18140;SDS011;9196;49.194;12.526;2022-08-03T03:22:10;3.93;;;3.73;;
18140;SDS011;9196;49.194;12.526;2022-08-03T03:24:40;2.77;;;2.67;;
18140;SDS011;9196;49.194;12.526;2022-08-03T03:27:09;3.80;;;3.60;;
18140;SDS011;9196;49.194;12.526;2022-08-03T03:29:38;4.33;;;4.03;;
18140;SDS011;9196;49.194;12.526;2022-08-03T03:32:06;3.63;;;3.23;;
18140;SDS011;9196;49.194;12.526;2022-08-03T03:34:33;4.60;;;4.30;;
18140;SDS011;9196;49.194;12.526;2022-08-03T03:37:00;3.77;;;3.57;;
18140;SDS011;9196;49.194;12.526;2022-08-03T03:39:27;3.27;;;3.07;;
18140;SDS011;9196;49.194;12.526;2022-08-03T03:41:55;3.63;;;3.43;;
18140;SDS011;9196;49.194;12.526;2022-08-03T03:44:24;5.37;;;3.30;;
18140;SDS011;9196;49.194;12.526;2022-08-03T03:46:52;11.43;;;4.07;;
18140;SDS011;9196;49.194;12.526;2022-08-03T03:49:19;5.63;;;3.73;;
18140;SDS011;9196;49.194;12.526;2022-08-03T03:51:46;4.07;;;3.83;;
18140;SDS011;9196;49.194;12.526;2022-08-03T03:54:13;3.40;;;3.20;;
18140;SDS011;9196;49.194;12.526;2022-08-03T03:56:40;4.17;;;3.87;;
18140;SDS011;9196;49.194;12.526;2022-08-03T03:59:08;3.13;;;2.93;;
18140;SDS011;9196;49.194;12.526;2022-08-03T04:01:35;3.27;;;3.07;;
18140;SDS011;9196;49.194;12.526;2022-08-03T04:04:03;6.73;;;5.87;;
18140;SDS011;9196;49.194;12.526;2022-08-03T04:06:44;5.90;;;5.30;;
18140;SDS011;9196;49.194;12.526;2022-08-03T04:09:43;3.60;;;3.30;;
18140;SDS011;9196;49.194;12.526;2022-08-03T04:12:29;3.83;;;3.53;;
18140;SDS011;9196;49.194;12.526;2022-08-03T04:14:58;5.33;;;2.90;;
18140;SDS011;9196;49.194;12.526;2022-08-03T04:17:26;3.37;;;3.07;;
18140;SDS011;9196;49.194;12.526;2022-08-03T04:19:55;5.73;;;3.30;;
18140;SDS011;9196;49.194;12.526;2022-08-03T04:22:24;3.60;;;3.37;;
18140;SDS011;9196;49.194;12.526;2022-08-03T04:24:56;3.57;;;3.37;;
18140;SDS011;9196;49.194;12.526;2022-08-03T04:27:28;3.80;;;3.50;;
18140;SDS011;9196;49.194;12.526;2022-08-03T04:29:59;13.13;;;3.60;;
18140;SDS011;9196;49.194;12.526;2022-08-03T04:32:29;4.33;;;3.87;;
18140;SDS011;9196;49.194;12.526;2022-08-03T04:34:56;6.03;;;3.70;;
18140;SDS011;9196;49.194;12.526;2022-08-03T04:37:25;5.13;;;4.63;;
18140;SDS011;9196;49.194;12.526;2022-08-03T04:39:58;5.87;;;5.30;;
18140;SDS011;9196;49.194;12.526;2022-08-03T04:42:28;4.37;;;4.07;;
18140;SDS011;9196;49.194;12.526;2022-08-03T04:44:59;5.47;;;4.03;;
18140;SDS011;9196;49.194;12.526;2022-08-03T04:47:29;4.70;;;3.80;;
18140;SDS011;9196;49.194;12.526;2022-08-03T04:49:58;4.40;;;4.10;;
18140;SDS011;9196;49.194;12.526;2022-08-03T04:52:26;4.17;;;3.97;;
18140;SDS011;9196;49.194;12.526;2022-08-03T04:54:53;4.57;;;3.40;;
18140;SDS011;9196;49.194;12.526;2022-08-03T04:57:20;3.77;;;3.57;;
18140;SDS011;9196;49.194;12.526;2022-08-03T04:59:47;8.20;;;3.67;;
18140;SDS011;9196;49.194;12.526;2022-08-03T05:02:18;3.77;;;3.50;;
18140;SDS011;9196;49.194;12.526;2022-08-03T05:04:45;6.60;;;4.30;;
18140;SDS011;9196;49.194;12.526;2022-08-03T05:07:11;4.40;;;4.00;;
18140;SDS011;9196;49.194;12.526;2022-08-03T05:09:39;9.43;;;3.63;;
18140;SDS011;9196;49.194;12.526;2022-08-03T05:12:06;5.20;;;4.70;;
18140;SDS011;9196;49.194;12.526;2022-08-03T05:14:33;5.17;;;4.63;;
18140;SDS011;9196;49.194;12.526;2022-08-03T05:17:01;7.10;;;3.87;;
18140;SDS011;9196;49.194;12.526;2022-08-03T05:19:29;4.80;;;4.30;;
18140;SDS011;9196;49.194;12.526;2022-08-03T05:21:56;4.50;;;4.10;;
18140;SDS011;9196;49.194;12.526;2022-08-03T05:24:23;4.77;;;4.40;;
18140;SDS011;9196;49.194;12.526;2022-08-03T05:26:50;5.20;;;4.80;;
18140;SDS011;9196;49.194;12.526;2022-08-03T05:29:17;7.70;;;5.20;;
18140;SDS011;9196;49.194;12.526;2022-08-03T05:31:44;7.00;;;4.80;;
18140;SDS011;9196;49.194;12.526;2022-08-03T05:34:10;5.20;;;4.80;;
18140;SDS011;9196;49.194;12.526;2022-08-03T05:36:39;5.20;;;4.80;;
18140;SDS011;9196;49.194;12.526;2022-08-03T05:39:05;6.87;;;4.50;;
18140;SDS011;9196;49.194;12.526;2022-08-03T05:41:32;4.93;;;4.53;;
18140;SDS011;9196;49.194;12.526;2022-08-03T05:43:59;4.93;;;4.33;;
18140;SDS011;9196;49.194;12.526;2022-08-03T05:46:26;4.53;;;4.13;;
18140;SDS011;9196;49.194;12.526;2022-08-03T05:48:53;4.90;;;3.93;;
18140;SDS011;9196;49.194;12.526;2022-08-03T05:51:20;4.80;;;4.30;;
18140;SDS011;9196;49.194;12.526;2022-08-03T05:53:48;5.00;;;4.13;;
18140;SDS011;9196;49.194;12.526;2022-08-03T05:56:15;5.30;;;3.50;;
18140;SDS011;9196;49.194;12.526;2022-08-03T05:58:42;5.07;;;3.80;;
18140;SDS011;9196;49.194;12.526;2022-08-03T06:01:10;3.50;;;3.30;;
18140;SDS011;9196;49.194;12.526;2022-08-03T06:03:37;2.80;;;2.70;;
18140;SDS011;9196;49.194;12.526;2022-08-03T06:06:03;4.77;;;4.37;;
18140;SDS011;9196;49.194;12.526;2022-08-03T06:08:30;3.50;;;3.20;;
18140;SDS011;9196;49.194;12.526;2022-08-03T06:10:59;3.40;;;3.20;;
18140;SDS011;9196;49.194;12.526;2022-08-03T06:13:25;3.50;;;3.30;;
18140;SDS011;9196;49.194;12.526;2022-08-03T06:15:52;4.80;;;4.07;;
18140;SDS011;9196;49.194;12.526;2022-08-03T06:18:19;3.80;;;3.33;;
18140;SDS011;9196;49.194;12.526;2022-08-03T06:20:47;3.60;;;3.37;;
18140;SDS011;9196;49.194;12.526;2022-08-03T06:23:14;3.60;;;3.40;;
18140;SDS011;9196;49.194;12.526;2022-08-03T06:25:41;4.37;;;4.07;;
18140;SDS011;9196;49.194;12.526;2022-08-03T06:28:09;3.57;;;3.00;;
18140;SDS011;9196;49.194;12.526;2022-08-03T06:30:38;4.03;;;3.20;;
18140;SDS011;9196;49.194;12.526;2022-08-03T06:33:05;4.63;;;3.40;;
18140;SDS011;9196;49.194;12.526;2022-08-03T06:35:32;5.43;;;3.27;;
18140;SDS011;9196;49.194;12.526;2022-08-03T06:37:59;3.50;;;3.30;;
18140;SDS011;9196;49.194;12.526;2022-08-03T06:40:25;3.37;;;3.07;;
18140;SDS011;9196;49.194;12.526;2022-08-03T06:42:55;3.50;;;2.97;;
18140;SDS011;9196;49.194;12.526;2022-08-03T06:45:24;3.20;;;3.00;;
18140;SDS011;9196;49.194;12.526;2022-08-03T06:47:58;3.50;;;3.20;;
18140;SDS011;9196;49.194;12.526;2022-08-03T06:50:26;8.67;;;4.13;;
18140;SDS011;9196;49.194;12.526;2022-08-03T06:52:52;2.80;;;2.63;;
18140;SDS011;9196;49.194;12.526;2022-08-03T06:55:19;3.10;;;2.90;;
18140;SDS011;9196;49.194;12.526;2022-08-03T06:57:46;3.00;;;2.83;;
18140;SDS011;9196;49.194;12.526;2022-08-03T07:00:13;3.57;;;3.37;;
18140;SDS011;9196;49.194;12.526;2022-08-03T07:02:42;4.20;;;3.50;;
18140;SDS011;9196;49.194;12.526;2022-08-03T07:05:09;2.60;;;2.50;;
18140;SDS011;9196;49.194;12.526;2022-08-03T07:07:37;7.13;;;3.37;;
18140;SDS011;9196;49.194;12.526;2022-08-03T07:10:04;4.20;;;2.63;;
18140;SDS011;9196;49.194;12.526;2022-08-03T07:12:33;3.67;;;2.90;;
18140;SDS011;9196;49.194;12.526;2022-08-03T07:15:01;3.30;;;3.10;;
18140;SDS011;9196;49.194;12.526;2022-08-03T07:17:29;3.17;;;2.70;;
18140;SDS011;9196;49.194;12.526;2022-08-03T07:19:59;2.97;;;2.80;;
18140;SDS011;9196;49.194;12.526;2022-08-03T07:22:27;2.70;;;2.60;;
18140;SDS011;9196;49.194;12.526;2022-08-03T07:24:54;3.00;;;2.90;;
18140;SDS011;9196;49.194;12.526;2022-08-03T07:27:21;2.90;;;2.70;;
18140;SDS011;9196;49.194;12.526;2022-08-03T07:29:48;3.37;;;3.10;;
18140;SDS011;9196;49.194;12.526;2022-08-03T07:32:18;2.97;;;2.80;;
18140;SDS011;9196;49.194;12.526;2022-08-03T07:34:45;3.00;;;2.80;;
18140;SDS011;9196;49.194;12.526;2022-08-03T07:37:13;9.33;;;2.67;;
18140;SDS011;9196;49.194;12.526;2022-08-03T07:39:40;3.00;;;2.77;;
18140;SDS011;9196;49.194;12.526;2022-08-03T07:42:07;6.30;;;2.30;;
18140;SDS011;9196;49.194;12.526;2022-08-03T07:44:34;5.13;;;2.63;;
18140;SDS011;9196;49.194;12.526;2022-08-03T07:47:01;4.27;;;2.60;;
18140;SDS011;9196;49.194;12.526;2022-08-03T07:49:27;2.23;;;2.13;;
18140;SDS011;9196;49.194;12.526;2022-08-03T07:51:54;3.60;;;2.87;;
18140;SDS011;9196;49.194;12.526;2022-08-03T07:54:36;3.00;;;2.80;;
18140;SDS011;9196;49.194;12.526;2022-08-03T07:57:03;2.60;;;2.50;;
18140;SDS011;9196;49.194;12.526;2022-08-03T07:59:30;2.33;;;2.23;;
18140;SDS011;9196;49.194;12.526;2022-08-03T08:01:59;8.97;;;6.30;;
18140;SDS011;9196;49.194;12.526;2022-08-03T08:04:26;8.60;;;7.07;;
18140;SDS011;9196;49.194;12.526;2022-08-03T08:06:53;3.13;;;2.83;;
18140;SDS011;9196;49.194;12.526;2022-08-03T08:09:21;2.33;;;2.20;;
18140;SDS011;9196;49.194;12.526;2022-08-03T08:11:49;5.03;;;2.30;;
18140;SDS011;9196;49.194;12.526;2022-08-03T08:14:16;5.47;;;2.90;;
18140;SDS011;9196;49.194;12.526;2022-08-03T08:16:44;2.77;;;2.40;;
18140;SDS011;9196;49.194;12.526;2022-08-03T08:19:11;2.73;;;2.33;;
18140;SDS011;9196;49.194;12.526;2022-08-03T08:21:40;7.47;;;2.33;;
18140;SDS011;9196;49.194;12.526;2022-08-03T08:24:07;1.97;;;1.80;;
18140;SDS011;9196;49.194;12.526;2022-08-03T08:26:41;3.00;;;2.53;;
18140;SDS011;9196;49.194;12.526;2022-08-03T08:29:11;2.10;;;2.00;;
18140;SDS011;9196;49.194;12.526;2022-08-03T08:31:38;6.37;;;2.23;;
18140;SDS011;9196;49.194;12.526;2022-08-03T08:34:05;1.60;;;1.60;;
18140;SDS011;9196;49.194;12.526;2022-08-03T08:36:32;1.67;;;1.57;;
18140;SDS011;9196;49.194;12.526;2022-08-03T08:39:02;3.63;;;1.87;;
18140;SDS011;9196;49.194;12.526;2022-08-03T08:41:30;1.67;;;1.57;;
18140;SDS011;9196;49.194;12.526;2022-08-03T08:43:58;6.00;;;1.70;;
18140;SDS011;9196;49.194;12.526;2022-08-03T08:46:28;2.63;;;2.10;;
18140;SDS011;9196;49.194;12.526;2022-08-03T08:48:58;2.80;;;2.20;;
18140;SDS011;9196;49.194;12.526;2022-08-03T08:51:26;1.50;;;1.50;;
18140;SDS011;9196;49.194;12.526;2022-08-03T08:53:56;5.90;;;1.90;;
18140;SDS011;9196;49.194;12.526;2022-08-03T08:56:26;1.80;;;1.70;;
18140;SDS011;9196;49.194;12.526;2022-08-03T08:58:58;1.90;;;1.80;;
18140;SDS011;9196;49.194;12.526;2022-08-03T09:01:28;2.30;;;1.93;;
18140;SDS011;9196;49.194;12.526;2022-08-03T09:03:55;3.50;;;2.20;;
18140;SDS011;9196;49.194;12.526;2022-08-03T09:06:22;2.43;;;2.33;;
18140;SDS011;9196;49.194;12.526;2022-08-03T09:08:50;1.70;;;1.60;;
18140;SDS011;9196;49.194;12.526;2022-08-03T09:11:19;2.13;;;2.03;;
18140;SDS011;9196;49.194;12.526;2022-08-03T09:13:48;4.73;;;1.80;;
18140;SDS011;9196;49.194;12.526;2022-08-03T09:16:16;2.10;;;2.00;;
18140;SDS011;9196;49.194;12.526;2022-08-03T09:18:46;1.40;;;1.30;;
18140;SDS011;9196;49.194;12.526;2022-08-03T09:21:20;3.37;;;1.40;;
18140;SDS011;9196;49.194;12.526;2022-08-03T09:23:50;1.67;;;1.57;;
18140;SDS011;9196;49.194;12.526;2022-08-03T09:26:21;1.70;;;1.63;;
18140;SDS011;9196;49.194;12.526;2022-08-03T09:28:55;2.00;;;1.80;;
18140;SDS011;9196;49.194;12.526;2022-08-03T09:31:29;1.80;;;1.70;;
18140;SDS011;9196;49.194;12.526;2022-08-03T09:33:59;1.87;;;1.70;;
18140;SDS011;9196;49.194;12.526;2022-08-03T09:36:33;2.83;;;1.90;;
18140;SDS011;9196;49.194;12.526;2022-08-03T09:39:05;1.60;;;1.60;;
18140;SDS011;9196;49.194;12.526;2022-08-03T09:42:02;1.47;;;1.40;;
18140;SDS011;9196;49.194;12.526;2022-08-03T09:44:34;1.90;;;1.80;;
18140;SDS011;9196;49.194;12.526;2022-08-03T09:47:15;1.70;;;1.60;;
18140;SDS011;9196;49.194;12.526;2022-08-03T09:49:58;7.07;;;2.53;;
18140;SDS011;9196;49.194;12.526;2022-08-03T09:52:33;4.27;;;1.93;;
18140;SDS011;9196;49.194;12.526;2022-08-03T09:55:06;1.70;;;1.60;;
18140;SDS011;9196;49.194;12.526;2022-08-03T09:57:37;2.20;;;2.00;;
18140;SDS011;9196;49.194;12.526;2022-08-03T10:00:19;2.00;;;1.80;;
18140;SDS011;9196;49.194;12.526;2022-08-03T10:02:50;3.27;;;1.83;;
18140;SDS011;9196;49.194;12.526;2022-08-03T10:05:32;2.00;;;1.90;;
18140;SDS011;9196;49.194;12.526;2022-08-03T10:08:13;2.47;;;1.53;;
18140;SDS011;9196;49.194;12.526;2022-08-03T10:10:43;2.20;;;1.87;;
18140;SDS011;9196;49.194;12.526;2022-08-03T10:13:29;1.70;;;1.67;;
18140;SDS011;9196;49.194;12.526;2022-08-03T10:16:00;1.77;;;1.43;;
18140;SDS011;9196;49.194;12.526;2022-08-03T10:18:44;2.10;;;2.00;;
18140;SDS011;9196;49.194;12.526;2022-08-03T10:21:17;1.83;;;1.80;;
18140;SDS011;9196;49.194;12.526;2022-08-03T10:24:00;4.00;;;1.63;;
18140;SDS011;9196;49.194;12.526;2022-08-03T10:26:44;1.80;;;1.70;;
18140;SDS011;9196;49.194;12.526;2022-08-03T10:29:20;1.80;;;1.70;;
18140;SDS011;9196;49.194;12.526;2022-08-03T10:32:06;2.17;;;2.07;;
18140;SDS011;9196;49.194;12.526;2022-08-03T10:34:48;1.83;;;1.60;;
18140;SDS011;9196;49.194;12.526;2022-08-03T10:37:36;2.20;;;1.53;;
18140;SDS011;9196;49.194;12.526;2022-08-03T10:40:11;2.40;;;2.30;;
18140;SDS011;9196;49.194;12.526;2022-08-03T10:42:53;1.87;;;1.77;;
18140;SDS011;9196;49.194;12.526;2022-08-03T10:45:42;1.63;;;1.53;;
18140;SDS011;9196;49.194;12.526;2022-08-03T10:48:28;1.77;;;1.67;;
18140;SDS011;9196;49.194;12.526;2022-08-03T10:51:02;2.50;;;1.77;;
18140;SDS011;9196;49.194;12.526;2022-08-03T10:53:37;1.60;;;1.60;;
18140;SDS011;9196;49.194;12.526;2022-08-03T10:56:06;1.67;;;1.67;;
18140;SDS011;9196;49.194;12.526;2022-08-03T11:05:33;1.80;;;1.70;;
18140;SDS011;9196;49.194;12.526;2022-08-03T11:13:56;1.50;;;1.50;;
18140;SDS011;9196;49.194;12.526;2022-08-03T11:16:29;1.77;;;1.70;;
18140;SDS011;9196;49.194;12.526;2022-08-03T11:18:59;2.10;;;2.00;;
18140;SDS011;9196;49.194;12.526;2022-08-03T11:27:31;3.17;;;1.83;;
18140;SDS011;9196;49.194;12.526;2022-08-03T11:30:00;1.70;;;1.70;;
18140;SDS011;9196;49.194;12.526;2022-08-03T11:32:50;2.70;;;1.97;;
18140;SDS011;9196;49.194;12.526;2022-08-03T11:35:18;1.83;;;1.73;;
18140;SDS011;9196;49.194;12.526;2022-08-03T11:40:43;2.20;;;1.47;;
18140;SDS011;9196;49.194;12.526;2022-08-03T11:46:12;1.50;;;1.50;;
18140;SDS011;9196;49.194;12.526;2022-08-03T11:48:46;1.50;;;1.50;;
18140;SDS011;9196;49.194;12.526;2022-08-03T11:51:19;1.53;;;1.47;;
18140;SDS011;9196;49.194;12.526;2022-08-03T11:53:51;1.43;;;1.37;;
18140;SDS011;9196;49.194;12.526;2022-08-03T11:56:21;2.40;;;1.60;;
18140;SDS011;9196;49.194;12.526;2022-08-03T11:58:52;1.90;;;1.80;;
18140;SDS011;9196;49.194;12.526;2022-08-03T12:01:22;1.33;;;1.23;;
18140;SDS011;9196;49.194;12.526;2022-08-03T12:04:01;1.83;;;1.70;;
18140;SDS011;9196;49.194;12.526;2022-08-03T12:06:30;3.27;;;1.50;;
18140;SDS011;9196;49.194;12.526;2022-08-03T12:09:17;6.60;;;1.77;;
18140;SDS011;9196;49.194;12.526;2022-08-03T12:11:46;1.70;;;1.60;;
18140;SDS011;9196;49.194;12.526;2022-08-03T12:14:19;2.07;;;1.97;;
18140;SDS011;9196;49.194;12.526;2022-08-03T12:16:47;2.43;;;1.60;;
18140;SDS011;9196;49.194;12.526;2022-08-03T12:19:15;1.60;;;1.60;;
18140;SDS011;9196;49.194;12.526;2022-08-03T12:21:46;2.00;;;1.90;;
18140;SDS011;9196;49.194;12.526;2022-08-03T12:24:17;2.60;;;2.10;;
18140;SDS011;9196;49.194;12.526;2022-08-03T12:26:48;4.23;;;2.17;;
18140;SDS011;9196;49.194;12.526;2022-08-03T12:29:17;4.00;;;1.70;;
18140;SDS011;9196;49.194;12.526;2022-08-03T12:31:47;2.00;;;1.90;;
18140;SDS011;9196;49.194;12.526;2022-08-03T12:34:14;1.60;;;1.60;;
18140;SDS011;9196;49.194;12.526;2022-08-03T12:36:48;1.40;;;1.30;;
18140;SDS011;9196;49.194;12.526;2022-08-03T12:39:17;2.03;;;1.93;;
18140;SDS011;9196;49.194;12.526;2022-08-03T12:41:51;1.70;;;1.60;;
18140;SDS011;9196;49.194;12.526;2022-08-03T12:44:28;2.00;;;1.90;;
18140;SDS011;9196;49.194;12.526;2022-08-03T12:46:56;1.70;;;1.60;;
18140;SDS011;9196;49.194;12.526;2022-08-03T12:49:26;1.40;;;1.40;;
18140;SDS011;9196;49.194;12.526;2022-08-03T12:51:54;1.67;;;1.57;;
18140;SDS011;9196;49.194;12.526;2022-08-03T12:54:23;3.07;;;1.63;;
18140;SDS011;9196;49.194;12.526;2022-08-03T12:57:02;2.77;;;1.67;;
18140;SDS011;9196;49.194;12.526;2022-08-03T12:59:32;1.20;;;1.20;;
18140;SDS011;9196;49.194;12.526;2022-08-03T13:02:01;2.07;;;1.50;;
18140;SDS011;9196;49.194;12.526;2022-08-03T13:04:30;1.53;;;1.43;;
18140;SDS011;9196;49.194;12.526;2022-08-03T13:06:59;1.23;;;1.20;;
18140;SDS011;9196;49.194;12.526;2022-08-03T13:09:29;1.40;;;1.30;;
18140;SDS011;9196;49.194;12.526;2022-08-03T13:12:12;1.70;;;1.60;;
18140;SDS011;9196;49.194;12.526;2022-08-03T13:14:42;1.57;;;1.40;;
18140;SDS011;9196;49.194;12.526;2022-08-03T13:17:11;2.30;;;1.60;;
18140;SDS011;9196;49.194;12.526;2022-08-03T13:19:40;2.17;;;2.07;;
18140;SDS011;9196;49.194;12.526;2022-08-03T13:22:13;2.50;;;1.60;;
18140;SDS011;9196;49.194;12.526;2022-08-03T13:24:42;6.17;;;1.90;;
18140;SDS011;9196;49.194;12.526;2022-08-03T13:27:10;1.40;;;1.40;;
18140;SDS011;9196;49.194;12.526;2022-08-03T13:29:39;1.70;;;1.70;;
18140;SDS011;9196;49.194;12.526;2022-08-03T13:32:08;1.60;;;1.50;;
18140;SDS011;9196;49.194;12.526;2022-08-03T13:34:36;11.50;;;1.53;;
18140;SDS011;9196;49.194;12.526;2022-08-03T13:37:04;1.40;;;1.40;;
18140;SDS011;9196;49.194;12.526;2022-08-03T13:39:31;2.83;;;1.70;;
18140;SDS011;9196;49.194;12.526;2022-08-03T13:41:58;1.60;;;1.50;;
18140;SDS011;9196;49.194;12.526;2022-08-03T13:44:26;1.53;;;1.43;;
18140;SDS011;9196;49.194;12.526;2022-08-03T13:46:53;1.57;;;1.57;;
18140;SDS011;9196;49.194;12.526;2022-08-03T13:49:22;1.10;;;1.10;;
18140;SDS011;9196;49.194;12.526;2022-08-03T13:51:49;1.47;;;1.37;;
18140;SDS011;9196;49.194;12.526;2022-08-03T13:54:16;1.90;;;1.80;;
18140;SDS011;9196;49.194;12.526;2022-08-03T13:56:43;1.50;;;1.50;;
18140;SDS011;9196;49.194;12.526;2022-08-03T13:59:16;3.00;;;1.70;;
18140;SDS011;9196;49.194;12.526;2022-08-03T14:01:44;5.80;;;5.27;;
18140;SDS011;9196;49.194;12.526;2022-08-03T14:04:11;1.50;;;1.40;;
18140;SDS011;9196;49.194;12.526;2022-08-03T14:06:40;1.40;;;1.30;;
18140;SDS011;9196;49.194;12.526;2022-08-03T14:09:09;2.90;;;1.67;;
18140;SDS011;9196;49.194;12.526;2022-08-03T14:11:38;2.27;;;1.57;;
18140;SDS011;9196;49.194;12.526;2022-08-03T14:14:07;1.50;;;1.50;;
18140;SDS011;9196;49.194;12.526;2022-08-03T14:16:35;1.43;;;1.33;;
18140;SDS011;9196;49.194;12.526;2022-08-03T14:19:02;1.67;;;1.67;;
18140;SDS011;9196;49.194;12.526;2022-08-03T14:21:31;4.93;;;2.33;;
18140;SDS011;9196;49.194;12.526;2022-08-03T14:24:01;1.73;;;1.63;;
18140;SDS011;9196;49.194;12.526;2022-08-03T14:26:30;1.73;;;1.63;;
18140;SDS011;9196;49.194;12.526;2022-08-03T14:28:58;4.30;;;1.60;;
18140;SDS011;9196;49.194;12.526;2022-08-03T14:31:25;6.27;;;1.47;;
18140;SDS011;9196;49.194;12.526;2022-08-03T14:33:52;2.40;;;1.50;;
18140;SDS011;9196;49.194;12.526;2022-08-03T14:36:22;1.87;;;1.30;;
18140;SDS011;9196;49.194;12.526;2022-08-03T14:38:49;1.53;;;1.53;;
18140;SDS011;9196;49.194;12.526;2022-08-03T14:41:17;1.47;;;1.37;;
18140;SDS011;9196;49.194;12.526;2022-08-03T14:43:45;1.50;;;1.50;;
18140;SDS011;9196;49.194;12.526;2022-08-03T14:46:12;2.20;;;1.30;;
18140;SDS011;9196;49.194;12.526;2022-08-03T14:48:39;1.50;;;1.50;;
18140;SDS011;9196;49.194;12.526;2022-08-03T14:51:06;1.60;;;1.60;;
18140;SDS011;9196;49.194;12.526;2022-08-03T14:53:33;1.30;;;1.30;;
18140;SDS011;9196;49.194;12.526;2022-08-03T14:56:00;1.60;;;1.60;;
18140;SDS011;9196;49.194;12.526;2022-08-03T14:58:28;1.60;;;1.50;;
18140;SDS011;9196;49.194;12.526;2022-08-03T15:00:56;3.53;;;1.40;;
18140;SDS011;9196;49.194;12.526;2022-08-03T15:03:23;1.43;;;1.20;;
18140;SDS011;9196;49.194;12.526;2022-08-03T15:05:51;2.30;;;1.27;;
18140;SDS011;9196;49.194;12.526;2022-08-03T15:08:20;5.83;;;1.40;;
18140;SDS011;9196;49.194;12.526;2022-08-03T15:10:48;1.40;;;1.40;;
18140;SDS011;9196;49.194;12.526;2022-08-03T15:13:16;1.60;;;1.50;;
18140;SDS011;9196;49.194;12.526;2022-08-03T15:15:44;2.30;;;1.70;;
18140;SDS011;9196;49.194;12.526;2022-08-03T15:18:12;1.63;;;1.53;;
18140;SDS011;9196;49.194;12.526;2022-08-03T15:20:38;1.67;;;1.60;;
18140;SDS011;9196;49.194;12.526;2022-08-03T15:23:05;2.10;;;1.50;;
18140;SDS011;9196;49.194;12.526;2022-08-03T15:25:32;1.40;;;1.40;;
18140;SDS011;9196;49.194;12.526;2022-08-03T15:28:00;2.00;;;1.90;;
18140;SDS011;9196;49.194;12.526;2022-08-03T15:30:27;1.17;;;1.17;;
18140;SDS011;9196;49.194;12.526;2022-08-03T15:32:56;1.67;;;1.57;;